createdAt,value
2023-02-14T00:00:36.182Z,8.60
2023-02-14T00:02:59.114Z,8.50
2023-02-14T00:05:21.671Z,8.55
2023-02-14T00:07:45.012Z,8.40
2023-02-14T00:10:08.821Z,9.30
2023-02-14T00:12:31.592Z,8.33
2023-02-14T00:15:12.900Z,8.45
2023-02-14T00:17:35.692Z,8.00
2023-02-14T00:19:58.559Z,8.02
2023-02-14T00:22:21.140Z,9.05
2023-02-14T00:24:43.831Z,7.80
2023-02-14T00:27:06.479Z,7.85
2023-02-14T00:29:31.956Z,9.07
2023-02-14T00:31:55.652Z,8.23
2023-02-14T00:34:19.899Z,8.70
2023-02-14T00:36:43.179Z,8.93
2023-02-14T00:39:07.860Z,8.77
2023-02-14T00:41:32.904Z,8.70
2023-02-14T00:43:55.614Z,8.98
2023-02-14T00:46:21.350Z,9.70
2023-02-14T00:48:44.365Z,8.83
2023-02-14T00:51:07.483Z,8.35
2023-02-14T00:53:30.196Z,9.82
2023-02-14T00:55:52.745Z,8.93
2023-02-14T00:58:15.397Z,8.65
2023-02-14T01:00:38.039Z,8.50
2023-02-14T01:03:00.722Z,8.05
2023-02-14T01:05:25.014Z,8.35
2023-02-14T01:07:47.770Z,7.88
2023-02-14T01:10:10.762Z,8.70
2023-02-14T01:12:33.368Z,8.80
2023-02-14T01:14:56.874Z,8.65
2023-02-14T01:17:19.499Z,7.88
2023-02-14T01:19:43.607Z,8.55
2023-02-14T01:22:06.183Z,8.80
2023-02-14T01:24:28.769Z,8.20
2023-02-14T01:26:51.387Z,9.27
2023-02-14T01:29:13.997Z,8.95
2023-02-14T01:31:36.840Z,8.93
2023-02-14T01:34:00.389Z,8.88
2023-02-14T01:36:35.286Z,8.63
2023-02-14T01:39:01.152Z,8.45
2023-02-14T01:41:25.149Z,8.73
2023-02-14T01:43:56.539Z,8.27
2023-02-14T01:46:19.877Z,9.07
2023-02-14T01:48:42.601Z,8.27
2023-02-14T01:51:05.432Z,8.32
2023-02-14T01:53:29.410Z,8.30
2023-02-14T01:56:03.234Z,8.68
2023-02-14T01:58:29.568Z,8.77
2023-02-14T02:00:58.675Z,8.97
2023-02-14T02:03:22.918Z,8.35
2023-02-14T02:05:50.352Z,9.13
2023-02-14T02:08:13.555Z,8.40
2023-02-14T02:10:36.190Z,9.05
2023-02-14T02:13:04.088Z,9.00
2023-02-14T02:15:29.264Z,9.02
2023-02-14T02:18:19.190Z,8.70
2023-02-14T02:21:19.826Z,8.95
2023-02-14T02:23:54.654Z,8.88
2023-02-14T02:26:48.394Z,7.97
2023-02-14T02:29:43.262Z,8.52
2023-02-14T02:32:14.659Z,8.55
2023-02-14T02:35:10.255Z,9.40
2023-02-14T02:37:40.535Z,9.75
2023-02-14T02:40:43.721Z,8.70
2023-02-14T02:43:35.567Z,8.20
2023-02-14T02:46:23.703Z,8.95
2023-02-14T02:49:41.428Z,9.18
2023-02-14T02:52:29.779Z,9.40
2023-02-14T02:54:59.890Z,8.80
2023-02-14T02:57:28.366Z,9.07
2023-02-14T02:59:53.839Z,9.57
2023-02-14T03:02:22.082Z,9.85
2023-02-14T03:04:55.970Z,9.30
2023-02-14T03:07:40.584Z,9.67
2023-02-14T03:10:23.737Z,9.80
2023-02-14T03:13:21.662Z,8.38
2023-02-14T03:15:52.736Z,8.77
2023-02-14T03:19:12.774Z,8.98
2023-02-14T03:21:46.542Z,8.40
2023-02-14T03:24:33.737Z,9.40
2023-02-14T03:27:18.335Z,9.48
2023-02-14T03:30:07.750Z,9.40
2023-02-14T03:32:38.281Z,9.60
2023-02-14T03:35:07.826Z,8.73
2023-02-14T03:37:40.535Z,9.40
2023-02-14T03:40:13.280Z,9.93
2023-02-14T03:42:41.790Z,9.30
2023-02-14T03:45:08.178Z,10.23
2023-02-14T03:47:34.352Z,8.47
2023-02-14T03:50:02.402Z,8.38
2023-02-14T03:52:28.887Z,9.30
2023-02-14T03:54:55.813Z,8.93
2023-02-14T03:57:23.741Z,9.70
2023-02-14T03:59:47.165Z,9.90
2023-02-14T04:02:17.504Z,9.25
2023-02-14T04:04:44.223Z,9.60
2023-02-14T04:07:21.319Z,9.65
2023-02-14T04:09:44.785Z,10.25
2023-02-14T04:12:08.176Z,9.80
2023-02-14T04:14:30.834Z,9.40
2023-02-14T04:17:11.750Z,9.20
2023-02-14T04:19:34.484Z,9.48
2023-02-14T04:21:57.247Z,9.77
2023-02-14T04:24:20.200Z,8.83
2023-02-14T04:26:54.150Z,10.18
2023-02-14T04:29:17.011Z,10.20
2023-02-14T04:31:39.740Z,11.40
2023-02-14T04:34:02.437Z,11.98
2023-02-14T04:36:25.042Z,12.03
2023-02-14T04:38:48.347Z,12.80
2023-02-14T04:41:10.953Z,12.45
2023-02-14T04:43:33.612Z,12.63
2023-02-14T04:45:56.249Z,12.18
2023-02-14T04:48:18.855Z,11.07
2023-02-14T04:50:41.437Z,12.15
2023-02-14T04:53:04.956Z,12.52
2023-02-14T04:55:27.558Z,12.05
2023-02-14T04:57:50.459Z,11.80
2023-02-14T05:00:13.760Z,11.00
2023-02-14T05:02:36.343Z,10.50
2023-02-14T05:04:58.914Z,10.82
2023-02-14T05:07:21.492Z,10.07
2023-02-14T05:09:44.041Z,11.38
2023-02-14T05:12:07.081Z,10.37
2023-02-14T05:14:31.565Z,10.65
2023-02-14T05:16:54.259Z,11.02
2023-02-14T05:19:16.830Z,11.80
2023-02-14T05:21:39.628Z,10.98
2023-02-14T05:24:02.578Z,10.87
2023-02-14T05:26:25.263Z,10.90
2023-02-14T05:28:47.832Z,11.60
2023-02-14T05:31:10.713Z,10.75
2023-02-14T05:33:33.361Z,11.48
2023-02-14T05:35:59.919Z,10.83
2023-02-14T05:38:22.555Z,10.93
2023-02-14T05:40:45.522Z,11.10
2023-02-14T05:43:08.251Z,10.48
2023-02-14T05:45:31.150Z,12.07
2023-02-14T05:47:54.151Z,10.87
2023-02-14T05:50:18.016Z,11.32
2023-02-14T05:52:40.689Z,10.77
2023-02-14T05:55:04.167Z,11.25
2023-02-14T05:57:26.885Z,12.20
2023-02-14T05:59:49.595Z,11.47
2023-02-14T06:02:12.294Z,11.80
2023-02-14T06:04:35.000Z,11.43
2023-02-14T06:06:58.909Z,12.27
2023-02-14T06:09:21.603Z,11.98
2023-02-14T06:11:44.284Z,11.30
2023-02-14T06:14:06.990Z,11.57
2023-02-14T06:16:29.678Z,11.63
2023-02-14T06:18:52.415Z,11.63
2023-02-14T06:21:15.077Z,11.88
2023-02-14T06:23:37.689Z,12.07
2023-02-14T06:26:00.486Z,11.93
2023-02-14T06:28:23.447Z,11.32
2023-02-14T06:30:47.179Z,11.05
2023-02-14T06:33:09.941Z,12.95
2023-02-14T06:35:32.710Z,12.40
2023-02-14T06:37:55.608Z,12.05
2023-02-14T06:40:19.813Z,12.25
2023-02-14T06:42:42.714Z,13.00
2023-02-14T06:45:06.478Z,12.63
2023-02-14T06:47:29.314Z,14.37
2023-02-14T06:49:52.065Z,17.45
2023-02-14T06:52:14.793Z,16.40
2023-02-14T06:54:37.581Z,15.88
2023-02-14T06:57:00.420Z,14.52
2023-02-14T06:59:23.194Z,15.60
2023-02-14T07:01:46.380Z,13.38
2023-02-14T07:04:09.090Z,12.85
2023-02-14T07:06:33.420Z,11.30
2023-02-14T07:08:57.220Z,12.82
2023-02-14T07:11:20.657Z,13.37
2023-02-14T07:13:44.077Z,13.63
2023-02-14T07:16:06.903Z,11.82
2023-02-14T07:18:29.655Z,11.93
2023-02-14T07:20:52.656Z,11.75
2023-02-14T07:23:15.469Z,11.37
2023-02-14T07:25:38.273Z,11.80
2023-02-14T07:28:01.298Z,11.93
2023-02-14T07:30:24.305Z,11.27
2023-02-14T07:32:47.464Z,11.88
2023-02-14T07:35:14.948Z,11.73
2023-02-14T07:37:38.351Z,12.63
2023-02-14T07:40:01.386Z,12.52
2023-02-14T07:42:24.487Z,12.18
2023-02-14T07:44:47.147Z,12.50
2023-02-14T07:47:10.624Z,12.23
2023-02-14T07:49:33.564Z,11.73
2023-02-14T07:51:57.499Z,12.60
2023-02-14T07:54:20.472Z,12.10
2023-02-14T07:56:44.461Z,12.25
2023-02-14T07:59:09.984Z,12.97
2023-02-14T08:01:32.772Z,11.30
2023-02-14T08:03:55.688Z,12.00
2023-02-14T08:06:20.003Z,11.52
2023-02-14T08:08:42.760Z,11.98
2023-02-14T08:11:05.692Z,11.23
2023-02-14T08:13:28.645Z,11.70
2023-02-14T08:16:07.656Z,12.48
2023-02-14T08:18:32.819Z,12.20
2023-02-14T08:20:56.031Z,12.80
2023-02-14T08:23:20.294Z,13.17
2023-02-14T08:25:42.969Z,13.75
2023-02-14T08:28:06.951Z,12.85
2023-02-14T08:30:30.363Z,13.25
2023-02-14T08:32:53.543Z,12.43
2023-02-14T08:35:16.273Z,13.83
2023-02-14T08:37:38.990Z,13.55
2023-02-14T08:40:01.742Z,13.02
2023-02-14T08:42:24.483Z,13.43
2023-02-14T08:44:47.192Z,13.20
2023-02-14T08:47:09.962Z,13.20
2023-02-14T08:49:33.064Z,11.27
2023-02-14T08:51:55.914Z,13.57
2023-02-14T08:54:18.572Z,14.48
2023-02-14T08:56:42.120Z,12.35
2023-02-14T08:59:04.828Z,12.83
2023-02-14T09:01:29.209Z,12.98
2023-02-14T09:03:55.943Z,13.52
2023-02-14T09:06:18.760Z,14.23
2023-02-14T09:08:42.228Z,14.98
2023-02-14T09:11:08.899Z,14.43
2023-02-14T09:13:31.716Z,16.10
2023-02-14T09:15:54.708Z,15.65
2023-02-14T09:18:17.646Z,14.75
2023-02-14T09:20:40.556Z,16.05
2023-02-14T09:23:03.270Z,15.50
2023-02-14T09:25:25.978Z,16.67
2023-02-14T09:27:48.670Z,16.15
2023-02-14T09:30:12.367Z,15.27
2023-02-14T09:32:35.352Z,15.20
2023-02-14T09:34:58.486Z,14.83
2023-02-14T09:37:40.284Z,15.55
2023-02-14T09:40:03.138Z,15.07
2023-02-14T09:42:37.983Z,15.55
2023-02-14T09:45:12.361Z,14.75
2023-02-14T09:47:41.177Z,14.73
2023-02-14T09:50:28.274Z,15.70
2023-02-14T09:52:57.278Z,15.68
2023-02-14T09:55:20.304Z,15.32
2023-02-14T09:58:04.227Z,15.68
2023-02-14T10:00:36.464Z,14.00
2023-02-14T10:03:13.583Z,14.07
2023-02-14T10:05:42.243Z,13.27
2023-02-14T10:08:36.001Z,14.82
2023-02-14T10:11:06.924Z,15.40
2023-02-14T10:13:31.911Z,13.63
2023-02-14T10:16:26.999Z,13.65
2023-02-14T10:18:59.489Z,12.35
2023-02-14T10:21:55.501Z,11.48
2023-02-14T10:24:30.028Z,12.32
2023-02-14T10:26:57.863Z,11.60
2023-02-14T10:29:22.162Z,11.77
2023-02-14T10:31:55.850Z,13.15
2023-02-14T10:34:40.554Z,12.50
2023-02-14T10:37:08.717Z,12.43
2023-02-14T10:39:46.362Z,11.27
2023-02-14T10:42:36.978Z,11.45
2023-02-14T10:45:02.681Z,12.40
2023-02-14T10:48:10.735Z,12.32
2023-02-14T10:50:36.487Z,12.88
2023-02-14T10:53:26.439Z,12.03
2023-02-14T10:55:53.896Z,11.57
2023-02-14T10:58:20.246Z,12.02
2023-02-14T11:01:00.555Z,11.13
2023-02-14T11:03:24.415Z,11.80
2023-02-14T11:05:48.970Z,11.67
2023-02-14T11:08:20.544Z,12.05
2023-02-14T11:10:44.000Z,12.43
2023-02-14T11:13:45.849Z,11.85
2023-02-14T11:16:11.890Z,12.77
2023-02-14T11:18:36.527Z,12.00
2023-02-14T11:21:02.165Z,11.98
2023-02-14T11:23:25.956Z,12.68
2023-02-14T11:25:52.602Z,12.32
2023-02-14T11:28:18.959Z,12.52
2023-02-14T11:30:46.111Z,11.87
2023-02-14T11:33:40.719Z,13.30
2023-02-14T11:36:06.314Z,12.27
2023-02-14T11:38:36.859Z,12.13
2023-02-14T11:41:00.544Z,12.80
2023-02-14T11:43:36.718Z,13.00
2023-02-14T11:46:26.453Z,12.15
2023-02-14T11:48:56.586Z,11.68
2023-02-14T11:51:20.420Z,12.60
2023-02-14T11:53:50.837Z,14.23
2023-02-14T11:56:18.676Z,13.40
2023-02-14T11:58:49.545Z,11.95
2023-02-14T12:01:22.190Z,11.15
2023-02-14T12:03:49.496Z,12.13
2023-02-14T12:06:13.649Z,12.38
2023-02-14T12:08:39.187Z,12.33
2023-02-14T12:11:17.936Z,12.60
2023-02-14T12:13:40.913Z,11.80
2023-02-14T12:16:03.990Z,12.45
2023-02-14T12:18:53.087Z,12.52
2023-02-14T12:21:30.862Z,13.53
2023-02-14T12:24:21.658Z,11.45
2023-02-14T12:26:50.836Z,13.27
2023-02-14T12:29:22.384Z,11.73
2023-02-14T12:31:47.053Z,11.63
2023-02-14T12:34:13.166Z,10.80
2023-02-14T12:37:19.758Z,11.68
2023-02-14T12:39:59.327Z,10.20
2023-02-14T12:42:43.027Z,7.47
2023-02-14T12:45:25.920Z,8.18
2023-02-14T12:48:19.624Z,8.17
2023-02-14T12:51:01.590Z,7.78
2023-02-14T12:53:53.810Z,8.20
2023-02-14T12:56:25.197Z,8.20
2023-02-14T12:59:06.680Z,9.48
2023-02-14T13:01:41.426Z,8.97
2023-02-14T13:04:20.795Z,8.65
2023-02-14T13:06:50.619Z,8.07
2023-02-14T13:09:34.911Z,8.50
2023-02-14T13:12:41.167Z,8.35
2023-02-14T13:15:19.089Z,7.57
2023-02-14T13:18:05.408Z,8.02
2023-02-14T13:20:55.830Z,8.27
2023-02-14T13:23:28.739Z,8.85
2023-02-14T13:25:59.574Z,8.68
2023-02-14T13:28:22.471Z,8.30
2023-02-14T13:30:45.513Z,8.05
2023-02-14T13:33:15.388Z,8.25
2023-02-14T13:35:38.610Z,7.53
2023-02-14T13:38:06.754Z,8.35
2023-02-14T13:40:31.381Z,8.33
2023-02-14T13:43:02.143Z,7.65
2023-02-14T13:45:37.915Z,8.13
2023-02-14T13:48:25.771Z,7.65
2023-02-14T13:51:04.853Z,8.35
2023-02-14T13:53:39.542Z,8.33
2023-02-14T13:56:22.379Z,8.32
2023-02-14T13:58:52.640Z,8.27
2023-02-14T14:01:37.601Z,8.18
2023-02-14T14:04:28.385Z,8.90
2023-02-14T14:07:03.045Z,8.77
2023-02-14T14:09:40.628Z,8.60
2023-02-14T14:12:04.001Z,8.50
2023-02-14T14:14:30.408Z,8.50
2023-02-14T14:17:00.903Z,8.30
2023-02-14T14:19:23.539Z,7.67
2023-02-14T14:22:08.493Z,8.10
2023-02-14T14:24:32.955Z,8.32
2023-02-14T14:27:00.042Z,8.00
2023-02-14T14:29:29.023Z,8.20
2023-02-14T14:31:56.258Z,9.03
2023-02-14T14:34:24.992Z,8.60
2023-02-14T14:36:48.790Z,8.63
2023-02-14T14:39:11.687Z,8.23
2023-02-14T14:41:34.487Z,10.32
2023-02-14T14:43:59.912Z,8.50
2023-02-14T14:46:22.889Z,8.57
2023-02-14T14:48:54.501Z,8.27
2023-02-14T14:51:33.457Z,8.80
2023-02-14T14:54:08.104Z,8.52
2023-02-14T14:56:37.289Z,8.87
2023-02-14T14:59:39.319Z,7.97
2023-02-14T15:02:03.960Z,8.70
2023-02-14T15:04:30.438Z,9.13
2023-02-14T15:06:55.193Z,8.60
2023-02-14T15:09:24.185Z,8.67
2023-02-14T15:12:06.459Z,7.85
2023-02-14T15:14:32.893Z,8.57
2023-02-14T15:17:01.478Z,8.48
2023-02-14T15:19:33.553Z,8.57
2023-02-14T15:21:56.130Z,8.77
2023-02-14T15:24:20.044Z,8.23
2023-02-14T15:26:45.022Z,8.75
2023-02-14T15:29:07.781Z,8.30
2023-02-14T15:31:37.205Z,8.20
2023-02-14T15:34:02.834Z,8.23
2023-02-14T15:36:26.535Z,8.60
2023-02-14T15:38:49.652Z,9.90
2023-02-14T15:41:14.147Z,8.93
2023-02-14T15:43:37.821Z,8.70
2023-02-14T15:46:39.387Z,8.80
2023-02-14T15:49:09.244Z,8.50
2023-02-14T15:51:35.904Z,8.77
2023-02-14T15:54:18.869Z,8.05
2023-02-14T15:57:02.246Z,8.32
2023-02-14T15:59:31.064Z,8.37
2023-02-14T16:02:33.245Z,8.23
2023-02-14T16:05:04.275Z,8.32
2023-02-14T16:07:30.614Z,8.88
2023-02-14T16:10:18.342Z,8.75
2023-02-14T16:12:44.208Z,9.37
2023-02-14T16:15:27.975Z,8.57
2023-02-14T16:17:50.805Z,10.07
2023-02-14T16:20:25.934Z,9.90
2023-02-14T16:22:49.709Z,10.45
2023-02-14T16:25:12.344Z,10.50
2023-02-14T16:27:35.201Z,10.50
2023-02-14T16:29:58.833Z,11.55
2023-02-14T16:32:24.013Z,10.85
2023-02-14T16:34:47.619Z,11.10
2023-02-14T16:37:38.444Z,10.13
2023-02-14T16:40:02.070Z,11.23
2023-02-14T16:42:25.422Z,11.18
2023-02-14T16:44:48.627Z,10.38
2023-02-14T16:47:16.273Z,11.73
2023-02-14T16:49:40.433Z,11.27
2023-02-14T16:52:03.196Z,11.13
2023-02-14T16:54:27.061Z,11.63
2023-02-14T16:57:05.407Z,11.48
2023-02-14T16:59:28.592Z,11.38
2023-02-14T17:01:51.721Z,11.60
2023-02-14T17:04:15.115Z,12.02
2023-02-14T17:06:40.699Z,11.65
2023-02-14T17:09:09.411Z,12.10
2023-02-14T17:11:37.500Z,12.82
2023-02-14T17:14:00.332Z,13.80
2023-02-14T17:16:23.591Z,12.85
2023-02-14T17:18:49.595Z,13.48
2023-02-14T17:21:12.779Z,12.45
2023-02-14T17:23:35.693Z,12.73
2023-02-14T17:25:58.475Z,12.40
2023-02-14T17:28:21.913Z,12.38
2023-02-14T17:30:44.870Z,12.38
2023-02-14T17:33:08.305Z,14.43
2023-02-14T17:35:33.411Z,13.07
2023-02-14T17:37:56.312Z,13.17
2023-02-14T17:40:19.397Z,12.27
2023-02-14T17:42:45.964Z,13.43
2023-02-14T17:45:11.828Z,12.23
2023-02-14T17:47:35.194Z,15.65
2023-02-14T17:49:58.370Z,15.50
2023-02-14T17:52:22.218Z,15.80
2023-02-14T17:54:45.025Z,16.05
2023-02-14T17:57:07.741Z,13.98
2023-02-14T17:59:34.079Z,14.00
2023-02-14T18:01:56.911Z,12.57
2023-02-14T18:04:19.646Z,13.43
2023-02-14T18:06:43.190Z,12.77
2023-02-14T18:09:06.872Z,12.25
2023-02-14T18:11:29.891Z,13.15
2023-02-14T18:13:59.026Z,13.20
2023-02-14T18:16:22.016Z,12.75
2023-02-14T18:18:46.039Z,12.73
2023-02-14T18:21:11.121Z,12.65
2023-02-14T18:23:33.755Z,13.43
2023-02-14T18:25:58.787Z,12.77
2023-02-14T18:28:22.922Z,12.63
2023-02-14T18:30:47.546Z,12.63
2023-02-14T18:33:10.232Z,13.43
2023-02-14T18:35:34.887Z,14.50
2023-02-14T18:37:59.180Z,14.73
2023-02-14T18:40:22.282Z,14.57
2023-02-14T18:42:44.840Z,14.75
2023-02-14T18:45:08.344Z,16.67
2023-02-14T18:47:31.144Z,17.20
2023-02-14T18:49:54.327Z,16.37
2023-02-14T18:52:17.280Z,15.70
2023-02-14T18:54:40.270Z,15.38
2023-02-14T18:57:03.345Z,15.10
2023-02-14T18:59:26.402Z,14.30
2023-02-14T19:01:49.770Z,14.40
2023-02-14T19:04:13.752Z,13.55
2023-02-14T19:06:37.085Z,14.48
2023-02-14T19:09:01.542Z,12.82
2023-02-14T19:11:28.694Z,12.95
2023-02-14T19:13:54.453Z,14.20
2023-02-14T19:16:20.439Z,14.07
2023-02-14T19:18:43.579Z,13.20
2023-02-14T19:21:14.127Z,12.75
2023-02-14T19:23:37.522Z,13.10
2023-02-14T19:26:09.538Z,13.17
2023-02-14T19:28:32.477Z,13.15
2023-02-14T19:30:59.521Z,14.52
2023-02-14T19:33:22.722Z,13.40
2023-02-14T19:35:45.724Z,12.90
2023-02-14T19:38:08.933Z,13.13
2023-02-14T19:40:33.068Z,13.05
2023-02-14T19:42:56.026Z,14.63
2023-02-14T19:45:19.439Z,13.15
2023-02-14T19:47:46.987Z,14.18
2023-02-14T19:50:11.782Z,13.27
2023-02-14T19:52:35.699Z,13.73
2023-02-14T19:55:00.657Z,13.10
2023-02-14T19:57:24.823Z,12.88
2023-02-14T19:59:48.179Z,13.93
2023-02-14T20:02:15.014Z,13.30
2023-02-14T20:04:37.854Z,12.95
2023-02-14T20:07:01.321Z,13.05
2023-02-14T20:09:24.781Z,13.73
2023-02-14T20:11:54.438Z,13.57
2023-02-14T20:14:24.950Z,12.77
2023-02-14T20:16:51.229Z,14.02
2023-02-14T20:19:17.149Z,13.07
2023-02-14T20:21:42.075Z,14.13
2023-02-14T20:24:06.140Z,14.50
2023-02-14T20:26:30.591Z,14.80
2023-02-14T20:28:53.743Z,13.98
2023-02-14T20:31:20.556Z,13.95
2023-02-14T20:33:43.484Z,14.10
2023-02-14T20:36:07.037Z,15.07
2023-02-14T20:38:30.371Z,14.60
2023-02-14T20:40:54.448Z,14.60
2023-02-14T20:43:18.490Z,13.18
2023-02-14T20:45:41.996Z,14.23
2023-02-14T20:48:07.033Z,14.27
2023-02-14T20:50:31.615Z,13.83
2023-02-14T20:52:55.358Z,13.75
2023-02-14T20:55:21.787Z,13.75
2023-02-14T20:57:44.449Z,13.98
2023-02-14T21:00:09.136Z,14.90
2023-02-14T21:02:34.157Z,13.77
2023-02-14T21:05:00.295Z,12.45
2023-02-14T21:07:23.279Z,13.60
2023-02-14T21:09:46.602Z,14.25
2023-02-14T21:12:09.792Z,12.63
2023-02-14T21:14:34.580Z,13.03
2023-02-14T21:16:57.514Z,13.38
2023-02-14T21:19:20.784Z,15.23
2023-02-14T21:21:43.751Z,12.88
2023-02-14T21:24:14.611Z,13.75
2023-02-14T21:26:37.816Z,13.10
2023-02-14T21:29:02.650Z,13.05
2023-02-14T21:31:27.171Z,13.70
2023-02-14T21:33:53.583Z,12.40
2023-02-14T21:36:20.089Z,14.38
2023-02-14T21:38:46.623Z,13.33
2023-02-14T21:41:19.463Z,12.90
2023-02-14T21:43:45.462Z,13.73
2023-02-14T21:46:20.396Z,13.93
2023-02-14T21:49:03.473Z,13.30
2023-02-14T21:51:36.398Z,13.00
2023-02-14T21:54:05.781Z,12.98
2023-02-14T21:56:29.291Z,13.32
2023-02-14T21:58:57.188Z,13.07
2023-02-14T22:01:28.566Z,13.02
2023-02-14T22:03:52.242Z,12.70
2023-02-14T22:06:15.029Z,12.82
2023-02-14T22:08:42.084Z,13.75
2023-02-14T22:11:10.066Z,13.65
2023-02-14T22:13:34.789Z,16.08
2023-02-14T22:16:10.625Z,16.23
2023-02-14T22:18:33.605Z,15.23
2023-02-14T22:21:04.408Z,14.57
2023-02-14T22:23:30.019Z,13.13
2023-02-14T22:25:52.828Z,13.32
2023-02-14T22:28:18.470Z,12.87
2023-02-14T22:30:41.911Z,13.02
2023-02-14T22:33:05.805Z,13.98
2023-02-14T22:35:28.443Z,13.32
2023-02-14T22:37:51.290Z,14.68
2023-02-14T22:40:13.818Z,13.63
2023-02-14T22:42:36.980Z,13.57
2023-02-14T22:44:59.698Z,13.20
2023-02-14T22:47:23.814Z,13.10
2023-02-14T22:49:49.869Z,13.65
2023-02-14T22:52:13.491Z,13.23
2023-02-14T22:54:36.066Z,12.70
2023-02-14T22:57:02.306Z,12.95
2023-02-14T22:59:28.544Z,12.80
2023-02-14T23:01:53.187Z,14.18
2023-02-14T23:04:18.225Z,12.33
2023-02-14T23:06:41.521Z,13.00
2023-02-14T23:09:06.102Z,12.18
2023-02-14T23:11:31.169Z,12.52
2023-02-14T23:14:13.181Z,13.40
2023-02-14T23:16:54.724Z,12.70
2023-02-14T23:19:48.323Z,12.45
2023-02-14T23:22:21.559Z,12.27
2023-02-14T23:24:46.621Z,12.75
2023-02-14T23:27:10.039Z,12.32
2023-02-14T23:29:34.564Z,12.27
2023-02-14T23:31:59.714Z,12.30
2023-02-14T23:34:31.833Z,13.23
2023-02-14T23:36:58.985Z,12.50
2023-02-14T23:39:22.399Z,13.00
2023-02-14T23:41:48.465Z,12.93
2023-02-14T23:44:11.342Z,12.57
2023-02-14T23:46:34.730Z,11.98
2023-02-14T23:48:57.679Z,12.98
2023-02-14T23:51:20.410Z,12.63
2023-02-14T23:53:43.127Z,12.37
2023-02-14T23:56:06.062Z,11.68
2023-02-14T23:58:29.136Z,11.25
